sensor_id;sensor_type;location;lat;lon;timestamp;P1;durP1;ratioP1;P2;durP2;ratioP2
64667;SDS011;51077;42.716;23.344;2022-08-02T00:00:46;3.53;;;2.30;;
64667;SDS011;51077;42.716;23.344;2022-08-02T00:03:12;3.37;;;1.60;;
64667;SDS011;51077;42.716;23.344;2022-08-02T00:05:37;4.27;;;1.70;;
64667;SDS011;51077;42.716;23.344;2022-08-02T00:08:03;3.47;;;1.90;;
64667;SDS011;51077;42.716;23.344;2022-08-02T00:10:28;5.77;;;1.97;;
64667;SDS011;51077;42.716;23.344;2022-08-02T00:12:54;3.03;;;1.80;;
64667;SDS011;51077;42.716;23.344;2022-08-02T00:15:20;3.63;;;1.97;;
64667;SDS011;51077;42.716;23.344;2022-08-02T00:17:45;2.90;;;1.70;;
64667;SDS011;51077;42.716;23.344;2022-08-02T00:20:12;4.67;;;1.97;;
64667;SDS011;51077;42.716;23.344;2022-08-02T00:22:37;2.88;;;1.88;;
64667;SDS011;51077;42.716;23.344;2022-08-02T00:25:03;4.37;;;2.20;;
64667;SDS011;51077;42.716;23.344;2022-08-02T00:27:29;4.00;;;2.35;;
64667;SDS011;51077;42.716;23.344;2022-08-02T00:29:55;3.30;;;1.70;;
64667;SDS011;51077;42.716;23.344;2022-08-02T00:32:21;4.30;;;1.73;;
64667;SDS011;51077;42.716;23.344;2022-08-02T00:34:47;4.18;;;1.80;;
64667;SDS011;51077;42.716;23.344;2022-08-02T00:37:12;8.93;;;2.17;;
64667;SDS011;51077;42.716;23.344;2022-08-02T00:39:38;3.20;;;1.60;;
64667;SDS011;51077;42.716;23.344;2022-08-02T00:42:03;3.93;;;2.20;;
64667;SDS011;51077;42.716;23.344;2022-08-02T00:44:30;3.70;;;1.88;;
64667;SDS011;51077;42.716;23.344;2022-08-02T00:46:55;3.47;;;1.80;;
64667;SDS011;51077;42.716;23.344;2022-08-02T00:49:21;3.40;;;1.77;;
64667;SDS011;51077;42.716;23.344;2022-08-02T00:51:46;2.87;;;1.60;;
64667;SDS011;51077;42.716;23.344;2022-08-02T00:54:12;5.07;;;2.00;;
64667;SDS011;51077;42.716;23.344;2022-08-02T00:56:38;2.60;;;1.88;;
64667;SDS011;51077;42.716;23.344;2022-08-02T00:59:04;3.40;;;1.60;;
64667;SDS011;51077;42.716;23.344;2022-08-02T01:01:29;2.80;;;1.50;;
64667;SDS011;51077;42.716;23.344;2022-08-02T01:06:33;4.03;;;2.08;;
64667;SDS011;51077;42.716;23.344;2022-08-02T01:08:59;4.30;;;1.97;;
64667;SDS011;51077;42.716;23.344;2022-08-02T01:11:26;3.03;;;1.92;;
64667;SDS011;51077;42.716;23.344;2022-08-02T01:13:53;2.50;;;1.50;;
64667;SDS011;51077;42.716;23.344;2022-08-02T01:16:22;4.13;;;1.80;;
64667;SDS011;51077;42.716;23.344;2022-08-02T01:18:53;3.10;;;1.60;;
64667;SDS011;51077;42.716;23.344;2022-08-02T01:29:13;3.47;;;1.83;;
64667;SDS011;51077;42.716;23.344;2022-08-02T01:31:48;2.50;;;1.48;;
64667;SDS011;51077;42.716;23.344;2022-08-02T01:40:05;2.78;;;1.33;;
64667;SDS011;51077;42.716;23.344;2022-08-02T01:42:34;2.25;;;1.38;;
64667;SDS011;51077;42.716;23.344;2022-08-02T01:45:02;3.05;;;1.55;;
64667;SDS011;51077;42.716;23.344;2022-08-02T01:47:29;3.00;;;1.70;;
64667;SDS011;51077;42.716;23.344;2022-08-02T01:50:03;3.22;;;1.45;;
64667;SDS011;51077;42.716;23.344;2022-08-02T01:52:31;3.90;;;1.50;;
64667;SDS011;51077;42.716;23.344;2022-08-02T01:55:10;3.80;;;1.83;;
64667;SDS011;51077;42.716;23.344;2022-08-02T01:57:39;4.70;;;1.80;;
64667;SDS011;51077;42.716;23.344;2022-08-02T02:00:09;3.10;;;1.80;;
64667;SDS011;51077;42.716;23.344;2022-08-02T02:02:36;4.18;;;1.67;;
64667;SDS011;51077;42.716;23.344;2022-08-02T02:05:06;2.60;;;1.60;;
64667;SDS011;51077;42.716;23.344;2022-08-02T02:07:36;3.80;;;1.48;;
64667;SDS011;51077;42.716;23.344;2022-08-02T02:10:03;3.03;;;1.73;;
64667;SDS011;51077;42.716;23.344;2022-08-02T02:12:30;3.38;;;1.63;;
64667;SDS011;51077;42.716;23.344;2022-08-02T02:14:59;4.13;;;1.50;;
64667;SDS011;51077;42.716;23.344;2022-08-02T02:17:26;5.40;;;1.63;;
64667;SDS011;51077;42.716;23.344;2022-08-02T02:19:53;4.38;;;1.88;;
64667;SDS011;51077;42.716;23.344;2022-08-02T02:22:21;4.10;;;1.77;;
64667;SDS011;51077;42.716;23.344;2022-08-02T02:24:47;4.80;;;1.63;;
64667;SDS011;51077;42.716;23.344;2022-08-02T02:27:12;3.30;;;1.53;;
64667;SDS011;51077;42.716;23.344;2022-08-02T02:29:44;3.05;;;1.73;;
64667;SDS011;51077;42.716;23.344;2022-08-02T02:32:13;4.38;;;1.90;;
64667;SDS011;51077;42.716;23.344;2022-08-02T02:34:42;3.08;;;1.50;;
64667;SDS011;51077;42.716;23.344;2022-08-02T02:37:12;2.95;;;1.70;;
64667;SDS011;51077;42.716;23.344;2022-08-02T02:39:41;3.55;;;1.70;;
64667;SDS011;51077;42.716;23.344;2022-08-02T02:42:09;3.00;;;1.40;;
64667;SDS011;51077;42.716;23.344;2022-08-02T02:44:37;3.13;;;1.67;;
64667;SDS011;51077;42.716;23.344;2022-08-02T02:47:04;4.18;;;1.90;;
64667;SDS011;51077;42.716;23.344;2022-08-02T02:49:32;3.85;;;1.90;;
64667;SDS011;51077;42.716;23.344;2022-08-02T02:51:59;4.55;;;1.80;;
64667;SDS011;51077;42.716;23.344;2022-08-02T02:54:26;5.15;;;2.05;;
64667;SDS011;51077;42.716;23.344;2022-08-02T02:56:53;4.22;;;1.98;;
64667;SDS011;51077;42.716;23.344;2022-08-02T02:59:19;4.15;;;2.00;;
64667;SDS011;51077;42.716;23.344;2022-08-02T03:01:45;3.53;;;1.70;;
64667;SDS011;51077;42.716;23.344;2022-08-02T03:04:11;3.20;;;1.80;;
64667;SDS011;51077;42.716;23.344;2022-08-02T03:06:37;3.50;;;1.73;;
64667;SDS011;51077;42.716;23.344;2022-08-02T03:09:03;3.00;;;1.73;;
64667;SDS011;51077;42.716;23.344;2022-08-02T03:11:30;5.57;;;2.35;;
64667;SDS011;51077;42.716;23.344;2022-08-02T03:13:59;4.00;;;1.98;;
64667;SDS011;51077;42.716;23.344;2022-08-02T03:16:27;3.25;;;1.80;;
64667;SDS011;51077;42.716;23.344;2022-08-02T03:18:53;5.17;;;2.10;;
64667;SDS011;51077;42.716;23.344;2022-08-02T03:21:19;3.80;;;1.67;;
64667;SDS011;51077;42.716;23.344;2022-08-02T03:23:45;4.00;;;2.07;;
64667;SDS011;51077;42.716;23.344;2022-08-02T03:26:11;4.20;;;1.97;;
64667;SDS011;51077;42.716;23.344;2022-08-02T03:28:36;4.00;;;2.00;;
64667;SDS011;51077;42.716;23.344;2022-08-02T03:31:02;4.30;;;2.60;;
64667;SDS011;51077;42.716;23.344;2022-08-02T03:33:27;6.07;;;2.57;;
64667;SDS011;51077;42.716;23.344;2022-08-02T03:35:55;4.85;;;2.17;;
64667;SDS011;51077;42.716;23.344;2022-08-02T03:38:24;5.40;;;2.60;;
64667;SDS011;51077;42.716;23.344;2022-08-02T03:40:50;4.13;;;2.00;;
64667;SDS011;51077;42.716;23.344;2022-08-02T03:43:17;5.03;;;2.17;;
64667;SDS011;51077;42.716;23.344;2022-08-02T03:45:45;6.15;;;2.38;;
64667;SDS011;51077;42.716;23.344;2022-08-02T03:48:16;3.55;;;1.83;;
64667;SDS011;51077;42.716;23.344;2022-08-02T03:50:42;4.25;;;1.80;;
64667;SDS011;51077;42.716;23.344;2022-08-02T03:53:11;4.18;;;1.63;;
64667;SDS011;51077;42.716;23.344;2022-08-02T03:55:38;7.70;;;2.30;;
64667;SDS011;51077;42.716;23.344;2022-08-02T03:58:03;4.47;;;2.10;;
64667;SDS011;51077;42.716;23.344;2022-08-02T04:00:30;3.78;;;1.90;;
64667;SDS011;51077;42.716;23.344;2022-08-02T04:02:55;3.00;;;1.77;;
64667;SDS011;51077;42.716;23.344;2022-08-02T04:05:21;3.50;;;1.70;;
64667;SDS011;51077;42.716;23.344;2022-08-02T04:07:46;3.23;;;1.80;;
64667;SDS011;51077;42.716;23.344;2022-08-02T04:10:15;3.53;;;1.60;;
64667;SDS011;51077;42.716;23.344;2022-08-02T04:12:41;3.42;;;1.88;;
64667;SDS011;51077;42.716;23.344;2022-08-02T04:15:07;3.00;;;1.47;;
64667;SDS011;51077;42.716;23.344;2022-08-02T04:17:35;6.70;;;1.67;;
64667;SDS011;51077;42.716;23.344;2022-08-02T04:20:06;5.07;;;1.60;;
64667;SDS011;51077;42.716;23.344;2022-08-02T04:22:38;3.97;;;1.90;;
64667;SDS011;51077;42.716;23.344;2022-08-02T04:25:09;3.75;;;1.75;;
64667;SDS011;51077;42.716;23.344;2022-08-02T04:27:36;3.05;;;1.70;;
64667;SDS011;51077;42.716;23.344;2022-08-02T04:30:05;2.85;;;1.60;;
64667;SDS011;51077;42.716;23.344;2022-08-02T04:32:32;4.75;;;1.67;;
64667;SDS011;51077;42.716;23.344;2022-08-02T04:34:59;2.97;;;1.63;;
64667;SDS011;51077;42.716;23.344;2022-08-02T04:37:24;3.47;;;1.80;;
64667;SDS011;51077;42.716;23.344;2022-08-02T04:39:50;3.17;;;1.40;;
64667;SDS011;51077;42.716;23.344;2022-08-02T04:42:19;4.70;;;1.83;;
64667;SDS011;51077;42.716;23.344;2022-08-02T04:44:46;3.60;;;1.40;;
64667;SDS011;51077;42.716;23.344;2022-08-02T04:47:11;2.60;;;1.50;;
64667;SDS011;51077;42.716;23.344;2022-08-02T04:49:36;4.10;;;1.60;;
64667;SDS011;51077;42.716;23.344;2022-08-02T04:52:02;4.40;;;1.70;;
64667;SDS011;51077;42.716;23.344;2022-08-02T04:54:27;3.23;;;1.87;;
64667;SDS011;51077;42.716;23.344;2022-08-02T04:56:54;4.47;;;1.50;;
64667;SDS011;51077;42.716;23.344;2022-08-02T04:59:19;3.10;;;1.63;;
64667;SDS011;51077;42.716;23.344;2022-08-02T05:01:45;4.97;;;1.43;;
64667;SDS011;51077;42.716;23.344;2022-08-02T05:04:10;3.83;;;1.43;;
64667;SDS011;51077;42.716;23.344;2022-08-02T05:06:36;3.03;;;1.80;;
64667;SDS011;51077;42.716;23.344;2022-08-02T05:09:01;3.93;;;1.70;;
64667;SDS011;51077;42.716;23.344;2022-08-02T05:11:27;3.07;;;1.60;;
64667;SDS011;51077;42.716;23.344;2022-08-02T05:13:52;4.17;;;1.53;;
64667;SDS011;51077;42.716;23.344;2022-08-02T05:16:17;4.67;;;1.43;;
64667;SDS011;51077;42.716;23.344;2022-08-02T05:18:43;3.67;;;1.77;;
64667;SDS011;51077;42.716;23.344;2022-08-02T05:21:08;4.20;;;1.70;;
64667;SDS011;51077;42.716;23.344;2022-08-02T05:23:34;5.10;;;2.70;;
64667;SDS011;51077;42.716;23.344;2022-08-02T05:25:59;5.37;;;2.07;;
64667;SDS011;51077;42.716;23.344;2022-08-02T05:28:25;4.63;;;1.87;;
64667;SDS011;51077;42.716;23.344;2022-08-02T05:30:50;5.07;;;1.80;;
64667;SDS011;51077;42.716;23.344;2022-08-02T05:33:16;4.27;;;2.00;;
64667;SDS011;51077;42.716;23.344;2022-08-02T05:35:42;4.65;;;1.95;;
64667;SDS011;51077;42.716;23.344;2022-08-02T05:38:07;5.83;;;1.70;;
64667;SDS011;51077;42.716;23.344;2022-08-02T05:40:33;6.00;;;2.30;;
64667;SDS011;51077;42.716;23.344;2022-08-02T05:42:59;4.22;;;2.00;;
64667;SDS011;51077;42.716;23.344;2022-08-02T05:45:25;5.60;;;2.10;;
64667;SDS011;51077;42.716;23.344;2022-08-02T05:47:50;5.20;;;1.80;;
64667;SDS011;51077;42.716;23.344;2022-08-02T05:50:16;4.80;;;1.73;;
64667;SDS011;51077;42.716;23.344;2022-08-02T06:00:13;6.03;;;2.55;;
64667;SDS011;51077;42.716;23.344;2022-08-02T06:05:15;6.45;;;2.53;;
64667;SDS011;51077;42.716;23.344;2022-08-02T06:07:44;5.60;;;2.22;;
64667;SDS011;51077;42.716;23.344;2022-08-02T06:10:11;7.60;;;2.20;;
64667;SDS011;51077;42.716;23.344;2022-08-02T06:12:49;7.70;;;2.33;;
64667;SDS011;51077;42.716;23.344;2022-08-02T06:15:15;6.13;;;2.47;;
64667;SDS011;51077;42.716;23.344;2022-08-02T06:17:42;4.47;;;2.35;;
64667;SDS011;51077;42.716;23.344;2022-08-02T06:20:09;5.55;;;2.75;;
64667;SDS011;51077;42.716;23.344;2022-08-02T06:22:36;5.85;;;2.67;;
64667;SDS011;51077;42.716;23.344;2022-08-02T06:25:05;5.43;;;2.75;;
64667;SDS011;51077;42.716;23.344;2022-08-02T06:27:31;4.47;;;2.40;;
64667;SDS011;51077;42.716;23.344;2022-08-02T06:29:58;6.15;;;2.47;;
64667;SDS011;51077;42.716;23.344;2022-08-02T06:32:23;5.67;;;2.70;;
64667;SDS011;51077;42.716;23.344;2022-08-02T06:34:51;5.60;;;2.83;;
64667;SDS011;51077;42.716;23.344;2022-08-02T06:37:36;5.50;;;2.30;;
64667;SDS011;51077;42.716;23.344;2022-08-02T06:43:17;6.53;;;2.28;;
64667;SDS011;51077;42.716;23.344;2022-08-02T06:45:50;5.70;;;2.20;;
64667;SDS011;51077;42.716;23.344;2022-08-02T06:48:15;4.80;;;2.33;;
64667;SDS011;51077;42.716;23.344;2022-08-02T06:50:41;5.23;;;2.20;;
64667;SDS011;51077;42.716;23.344;2022-08-02T06:53:08;3.78;;;2.40;;
64667;SDS011;51077;42.716;23.344;2022-08-02T06:55:34;4.20;;;2.30;;
64667;SDS011;51077;42.716;23.344;2022-08-02T06:58:00;5.83;;;2.33;;
64667;SDS011;51077;42.716;23.344;2022-08-02T07:00:27;6.97;;;2.67;;
64667;SDS011;51077;42.716;23.344;2022-08-02T07:02:53;4.55;;;2.40;;
64667;SDS011;51077;42.716;23.344;2022-08-02T07:05:19;5.37;;;2.37;;
64667;SDS011;51077;42.716;23.344;2022-08-02T07:07:44;7.73;;;2.20;;
64667;SDS011;51077;42.716;23.344;2022-08-02T07:10:10;4.30;;;2.10;;
64667;SDS011;51077;42.716;23.344;2022-08-02T07:12:37;6.40;;;2.17;;
64667;SDS011;51077;42.716;23.344;2022-08-02T07:15:04;5.50;;;2.30;;
64667;SDS011;51077;42.716;23.344;2022-08-02T07:17:31;5.53;;;2.40;;
64667;SDS011;51077;42.716;23.344;2022-08-02T07:19:58;4.40;;;1.92;;
64667;SDS011;51077;42.716;23.344;2022-08-02T07:22:25;3.28;;;1.88;;
64667;SDS011;51077;42.716;23.344;2022-08-02T07:24:52;5.15;;;1.95;;
64667;SDS011;51077;42.716;23.344;2022-08-02T07:27:19;4.10;;;1.88;;
64667;SDS011;51077;42.716;23.344;2022-08-02T07:29:45;6.70;;;1.98;;
64667;SDS011;51077;42.716;23.344;2022-08-02T07:32:10;2.90;;;1.70;;
64667;SDS011;51077;42.716;23.344;2022-08-02T07:34:36;4.03;;;1.97;;
64667;SDS011;51077;42.716;23.344;2022-08-02T07:37:01;4.07;;;1.97;;
64667;SDS011;51077;42.716;23.344;2022-08-02T07:39:27;4.97;;;2.03;;
64667;SDS011;51077;42.716;23.344;2022-08-02T07:41:53;5.63;;;1.90;;
64667;SDS011;51077;42.716;23.344;2022-08-02T07:44:18;4.80;;;1.83;;
64667;SDS011;51077;42.716;23.344;2022-08-02T07:46:44;4.83;;;1.80;;
64667;SDS011;51077;42.716;23.344;2022-08-02T07:49:10;4.05;;;1.65;;
64667;SDS011;51077;42.716;23.344;2022-08-02T07:51:37;4.18;;;1.70;;
64667;SDS011;51077;42.716;23.344;2022-08-02T07:54:03;3.45;;;1.67;;
64667;SDS011;51077;42.716;23.344;2022-08-02T07:56:29;2.93;;;1.57;;
64667;SDS011;51077;42.716;23.344;2022-08-02T07:58:54;2.70;;;1.43;;
64667;SDS011;51077;42.716;23.344;2022-08-02T08:01:20;3.13;;;1.70;;
64667;SDS011;51077;42.716;23.344;2022-08-02T08:03:45;2.87;;;1.30;;
64667;SDS011;51077;42.716;23.344;2022-08-02T08:06:11;3.33;;;1.67;;
64667;SDS011;51077;42.716;23.344;2022-08-02T08:08:36;4.40;;;1.70;;
64667;SDS011;51077;42.716;23.344;2022-08-02T08:11:02;7.80;;;1.70;;
64667;SDS011;51077;42.716;23.344;2022-08-02T08:13:28;2.30;;;1.30;;
64667;SDS011;51077;42.716;23.344;2022-08-02T08:15:53;2.97;;;1.53;;
64667;SDS011;51077;42.716;23.344;2022-08-02T08:18:19;3.80;;;1.40;;
64667;SDS011;51077;42.716;23.344;2022-08-02T08:20:45;2.67;;;1.48;;
64667;SDS011;51077;42.716;23.344;2022-08-02T08:23:11;4.00;;;1.50;;
64667;SDS011;51077;42.716;23.344;2022-08-02T08:25:36;3.17;;;1.43;;
64667;SDS011;51077;42.716;23.344;2022-08-02T08:28:02;2.40;;;1.47;;
64667;SDS011;51077;42.716;23.344;2022-08-02T08:30:27;5.10;;;1.27;;
64667;SDS011;51077;42.716;23.344;2022-08-02T08:32:53;2.33;;;1.30;;
64667;SDS011;51077;42.716;23.344;2022-08-02T08:35:18;3.23;;;1.13;;
64667;SDS011;51077;42.716;23.344;2022-08-02T08:37:44;4.73;;;1.43;;
64667;SDS011;51077;42.716;23.344;2022-08-02T08:40:09;3.80;;;1.30;;
64667;SDS011;51077;42.716;23.344;2022-08-02T08:42:36;3.20;;;1.40;;
64667;SDS011;51077;42.716;23.344;2022-08-02T08:45:02;2.97;;;1.37;;
64667;SDS011;51077;42.716;23.344;2022-08-02T08:47:33;4.50;;;1.60;;
64667;SDS011;51077;42.716;23.344;2022-08-02T08:50:02;3.63;;;1.17;;
64667;SDS011;51077;42.716;23.344;2022-08-02T08:53:02;2.50;;;1.30;;
64667;SDS011;51077;42.716;23.344;2022-08-02T08:55:30;2.67;;;1.30;;
64667;SDS011;51077;42.716;23.344;2022-08-02T08:57:57;4.70;;;1.23;;
64667;SDS011;51077;42.716;23.344;2022-08-02T09:00:23;3.50;;;1.30;;
64667;SDS011;51077;42.716;23.344;2022-08-02T09:02:48;2.80;;;1.20;;
64667;SDS011;51077;42.716;23.344;2022-08-02T09:05:14;2.50;;;1.10;;
64667;SDS011;51077;42.716;23.344;2022-08-02T09:07:41;2.87;;;1.20;;
64667;SDS011;51077;42.716;23.344;2022-08-02T09:13:16;2.43;;;1.20;;
64667;SDS011;51077;42.716;23.344;2022-08-02T09:15:45;2.90;;;1.50;;
64667;SDS011;51077;42.716;23.344;2022-08-02T09:18:31;2.97;;;0.90;;
64667;SDS011;51077;42.716;23.344;2022-08-02T09:21:03;2.23;;;1.10;;
64667;SDS011;51077;42.716;23.344;2022-08-02T09:23:35;2.43;;;0.90;;
64667;SDS011;51077;42.716;23.344;2022-08-02T09:26:01;2.40;;;1.20;;
64667;SDS011;51077;42.716;23.344;2022-08-02T09:28:30;2.67;;;1.20;;
64667;SDS011;51077;42.716;23.344;2022-08-02T09:31:18;2.57;;;1.17;;
64667;SDS011;51077;42.716;23.344;2022-08-02T09:33:43;2.90;;;1.30;;
64667;SDS011;51077;42.716;23.344;2022-08-02T09:36:11;2.13;;;0.97;;
64667;SDS011;51077;42.716;23.344;2022-08-02T09:38:38;3.13;;;1.20;;
64667;SDS011;51077;42.716;23.344;2022-08-02T09:41:05;2.13;;;0.93;;
64667;SDS011;51077;42.716;23.344;2022-08-02T09:43:43;2.43;;;1.10;;
64667;SDS011;51077;42.716;23.344;2022-08-02T09:46:09;2.80;;;0.90;;
64667;SDS011;51077;42.716;23.344;2022-08-02T09:48:45;2.67;;;1.17;;
64667;SDS011;51077;42.716;23.344;2022-08-02T09:51:18;2.90;;;1.20;;
64667;SDS011;51077;42.716;23.344;2022-08-02T09:53:45;1.77;;;0.90;;
64667;SDS011;51077;42.716;23.344;2022-08-02T09:56:13;2.60;;;1.10;;
64667;SDS011;51077;42.716;23.344;2022-08-02T09:58:39;2.67;;;1.10;;
64667;SDS011;51077;42.716;23.344;2022-08-02T10:01:05;1.97;;;0.80;;
64667;SDS011;51077;42.716;23.344;2022-08-02T10:03:30;2.30;;;0.87;;
64667;SDS011;51077;42.716;23.344;2022-08-02T10:05:56;2.07;;;0.90;;
64667;SDS011;51077;42.716;23.344;2022-08-02T10:08:22;1.87;;;0.93;;
64667;SDS011;51077;42.716;23.344;2022-08-02T10:10:49;1.57;;;0.87;;
64667;SDS011;51077;42.716;23.344;2022-08-02T10:13:27;1.50;;;0.80;;
64667;SDS011;51077;42.716;23.344;2022-08-02T10:15:54;2.13;;;0.87;;
64667;SDS011;51077;42.716;23.344;2022-08-02T10:18:20;1.87;;;0.90;;
64667;SDS011;51077;42.716;23.344;2022-08-02T10:20:46;0.90;;;0.57;;
64667;SDS011;51077;42.716;23.344;2022-08-02T10:23:14;1.90;;;0.80;;
64667;SDS011;51077;42.716;23.344;2022-08-02T10:25:40;1.47;;;0.73;;
64667;SDS011;51077;42.716;23.344;2022-08-02T10:28:08;1.63;;;0.83;;
64667;SDS011;51077;42.716;23.344;2022-08-02T10:30:35;1.93;;;0.87;;
64667;SDS011;51077;42.716;23.344;2022-08-02T10:33:03;1.67;;;0.70;;
64667;SDS011;51077;42.716;23.344;2022-08-02T10:35:31;1.43;;;0.70;;
64667;SDS011;51077;42.716;23.344;2022-08-02T10:38:00;1.57;;;0.80;;
64667;SDS011;51077;42.716;23.344;2022-08-02T10:40:46;1.93;;;0.70;;
64667;SDS011;51077;42.716;23.344;2022-08-02T10:56:53;1.50;;;0.70;;
64667;SDS011;51077;42.716;23.344;2022-08-02T10:59:33;2.00;;;0.70;;
64667;SDS011;51077;42.716;23.344;2022-08-02T11:02:02;1.37;;;0.60;;
64667;SDS011;51077;42.716;23.344;2022-08-02T11:05:15;1.70;;;0.60;;
64667;SDS011;51077;42.716;23.344;2022-08-02T11:07:15;1.57;;;0.70;;
64667;SDS011;51077;42.716;23.344;2022-08-02T11:09:47;1.60;;;0.70;;
64667;SDS011;51077;42.716;23.344;2022-08-02T11:12:17;1.43;;;0.50;;
64667;SDS011;51077;42.716;23.344;2022-08-02T11:14:45;1.13;;;0.60;;
64667;SDS011;51077;42.716;23.344;2022-08-02T11:17:22;1.27;;;0.50;;
64667;SDS011;51077;42.716;23.344;2022-08-02T11:22:33;0.90;;;0.50;;
64667;SDS011;51077;42.716;23.344;2022-08-02T11:27:47;1.00;;;0.50;;
64667;SDS011;51077;42.716;23.344;2022-08-02T11:30:16;1.27;;;0.40;;
64667;SDS011;51077;42.716;23.344;2022-08-02T11:32:42;0.83;;;0.47;;
64667;SDS011;51077;42.716;23.344;2022-08-02T11:35:08;0.93;;;0.47;;
64667;SDS011;51077;42.716;23.344;2022-08-02T11:37:34;1.10;;;0.50;;
64667;SDS011;51077;42.716;23.344;2022-08-02T11:40:09;4.37;;;0.63;;
64667;SDS011;51077;42.716;23.344;2022-08-02T11:42:37;1.00;;;0.50;;
64667;SDS011;51077;42.716;23.344;2022-08-02T11:45:04;1.83;;;0.57;;
64667;SDS011;51077;42.716;23.344;2022-08-02T11:47:32;0.80;;;0.43;;
64667;SDS011;51077;42.716;23.344;2022-08-02T11:50:07;1.03;;;0.50;;
64667;SDS011;51077;42.716;23.344;2022-08-02T11:52:34;1.37;;;0.50;;
64667;SDS011;51077;42.716;23.344;2022-08-02T11:55:00;0.93;;;0.53;;
64667;SDS011;51077;42.716;23.344;2022-08-02T11:57:26;2.70;;;0.70;;
64667;SDS011;51077;42.716;23.344;2022-08-02T11:59:53;2.00;;;0.60;;
64667;SDS011;51077;42.716;23.344;2022-08-02T12:02:27;2.10;;;0.50;;
64667;SDS011;51077;42.716;23.344;2022-08-02T12:04:59;1.33;;;0.50;;
64667;SDS011;51077;42.716;23.344;2022-08-02T12:07:27;1.03;;;0.53;;
64667;SDS011;51077;42.716;23.344;2022-08-02T12:09:58;1.83;;;0.60;;
64667;SDS011;51077;42.716;23.344;2022-08-02T12:12:24;1.17;;;0.57;;
64667;SDS011;51077;42.716;23.344;2022-08-02T12:14:50;0.93;;;0.60;;
64667;SDS011;51077;42.716;23.344;2022-08-02T12:17:21;1.03;;;0.40;;
64667;SDS011;51077;42.716;23.344;2022-08-02T12:20:09;0.50;;;0.30;;
64667;SDS011;51077;42.716;23.344;2022-08-02T12:22:36;1.33;;;0.50;;
64667;SDS011;51077;42.716;23.344;2022-08-02T12:25:16;0.97;;;0.50;;
64667;SDS011;51077;42.716;23.344;2022-08-02T12:27:44;1.20;;;0.40;;
64667;SDS011;51077;42.716;23.344;2022-08-02T12:30:10;1.03;;;0.50;;
64667;SDS011;51077;42.716;23.344;2022-08-02T12:32:37;1.40;;;0.70;;
64667;SDS011;51077;42.716;23.344;2022-08-02T12:37:34;1.40;;;0.50;;
64667;SDS011;51077;42.716;23.344;2022-08-02T12:43:04;1.10;;;0.50;;
64667;SDS011;51077;42.716;23.344;2022-08-02T12:45:32;1.90;;;0.40;;
64667;SDS011;51077;42.716;23.344;2022-08-02T12:48:10;1.20;;;0.50;;
64667;SDS011;51077;42.716;23.344;2022-08-02T12:50:36;0.93;;;0.40;;
64667;SDS011;51077;42.716;23.344;2022-08-02T12:53:07;1.20;;;0.40;;
64667;SDS011;51077;42.716;23.344;2022-08-02T12:55:35;1.13;;;0.50;;
64667;SDS011;51077;42.716;23.344;2022-08-02T12:58:10;1.43;;;0.50;;
64667;SDS011;51077;42.716;23.344;2022-08-02T13:00:36;1.20;;;0.50;;
64667;SDS011;51077;42.716;23.344;2022-08-02T13:03:03;0.80;;;0.50;;
64667;SDS011;51077;42.716;23.344;2022-08-02T13:05:30;1.60;;;0.50;;
64667;SDS011;51077;42.716;23.344;2022-08-02T13:08:00;1.10;;;0.60;;
64667;SDS011;51077;42.716;23.344;2022-08-02T13:10:26;0.90;;;0.40;;
64667;SDS011;51077;42.716;23.344;2022-08-02T13:12:52;1.10;;;0.50;;
64667;SDS011;51077;42.716;23.344;2022-08-02T13:15:18;1.30;;;0.50;;
64667;SDS011;51077;42.716;23.344;2022-08-02T13:17:44;1.40;;;0.70;;
64667;SDS011;51077;42.716;23.344;2022-08-02T13:20:10;3.33;;;0.80;;
64667;SDS011;51077;42.716;23.344;2022-08-02T13:22:36;1.80;;;0.57;;
64667;SDS011;51077;42.716;23.344;2022-08-02T13:25:02;1.20;;;0.57;;
64667;SDS011;51077;42.716;23.344;2022-08-02T13:27:29;1.47;;;0.60;;
64667;SDS011;51077;42.716;23.344;2022-08-02T13:29:56;1.33;;;0.60;;
64667;SDS011;51077;42.716;23.344;2022-08-02T13:32:23;1.37;;;0.60;;
64667;SDS011;51077;42.716;23.344;2022-08-02T13:34:49;1.30;;;0.50;;
64667;SDS011;51077;42.716;23.344;2022-08-02T13:37:15;1.43;;;0.57;;
64667;SDS011;51077;42.716;23.344;2022-08-02T13:39:41;1.07;;;0.50;;
64667;SDS011;51077;42.716;23.344;2022-08-02T13:42:06;1.83;;;0.50;;
64667;SDS011;51077;42.716;23.344;2022-08-02T13:44:33;1.43;;;0.50;;
64667;SDS011;51077;42.716;23.344;2022-08-02T13:46:59;1.63;;;0.50;;
64667;SDS011;51077;42.716;23.344;2022-08-02T13:49:25;1.53;;;0.67;;
64667;SDS011;51077;42.716;23.344;2022-08-02T13:51:51;1.40;;;0.60;;
64667;SDS011;51077;42.716;23.344;2022-08-02T13:54:16;0.83;;;0.37;;
64667;SDS011;51077;42.716;23.344;2022-08-02T13:56:42;0.97;;;0.50;;
64667;SDS011;51077;42.716;23.344;2022-08-02T13:59:07;1.37;;;0.57;;
64667;SDS011;51077;42.716;23.344;2022-08-02T14:01:33;2.17;;;0.70;;
64667;SDS011;51077;42.716;23.344;2022-08-02T14:03:58;1.37;;;0.50;;
64667;SDS011;51077;42.716;23.344;2022-08-02T14:06:24;0.93;;;0.50;;
64667;SDS011;51077;42.716;23.344;2022-08-02T14:08:49;1.43;;;0.60;;
64667;SDS011;51077;42.716;23.344;2022-08-02T14:11:15;1.13;;;0.40;;
64667;SDS011;51077;42.716;23.344;2022-08-02T14:13:40;3.30;;;0.90;;
64667;SDS011;51077;42.716;23.344;2022-08-02T14:16:06;1.57;;;0.60;;
64667;SDS011;51077;42.716;23.344;2022-08-02T14:18:31;2.00;;;0.60;;
64667;SDS011;51077;42.716;23.344;2022-08-02T14:20:57;1.20;;;0.60;;
64667;SDS011;51077;42.716;23.344;2022-08-02T14:23:22;1.73;;;0.90;;
64667;SDS011;51077;42.716;23.344;2022-08-02T14:25:48;1.00;;;0.43;;
64667;SDS011;51077;42.716;23.344;2022-08-02T14:28:14;1.10;;;0.57;;
64667;SDS011;51077;42.716;23.344;2022-08-02T14:30:39;1.47;;;0.60;;
64667;SDS011;51077;42.716;23.344;2022-08-02T14:33:05;1.43;;;0.50;;
64667;SDS011;51077;42.716;23.344;2022-08-02T14:35:31;2.33;;;0.70;;
64667;SDS011;51077;42.716;23.344;2022-08-02T14:37:56;1.73;;;0.80;;
64667;SDS011;51077;42.716;23.344;2022-08-02T14:40:22;2.87;;;0.70;;
64667;SDS011;51077;42.716;23.344;2022-08-02T14:42:47;2.83;;;0.73;;
64667;SDS011;51077;42.716;23.344;2022-08-02T14:45:15;1.40;;;0.63;;
64667;SDS011;51077;42.716;23.344;2022-08-02T14:47:42;2.35;;;0.77;;
64667;SDS011;51077;42.716;23.344;2022-08-02T14:50:08;1.43;;;0.70;;
64667;SDS011;51077;42.716;23.344;2022-08-02T14:52:33;1.30;;;0.70;;
64667;SDS011;51077;42.716;23.344;2022-08-02T14:54:59;2.90;;;0.67;;
64667;SDS011;51077;42.716;23.344;2022-08-02T14:57:24;1.67;;;0.70;;
64667;SDS011;51077;42.716;23.344;2022-08-02T14:59:50;1.20;;;0.57;;
64667;SDS011;51077;42.716;23.344;2022-08-02T15:02:15;1.33;;;0.60;;
64667;SDS011;51077;42.716;23.344;2022-08-02T15:04:41;1.47;;;0.70;;
64667;SDS011;51077;42.716;23.344;2022-08-02T15:07:06;3.90;;;0.70;;
64667;SDS011;51077;42.716;23.344;2022-08-02T15:09:32;2.13;;;0.83;;
64667;SDS011;51077;42.716;23.344;2022-08-02T15:11:57;1.80;;;0.50;;
64667;SDS011;51077;42.716;23.344;2022-08-02T15:14:22;1.30;;;0.53;;
64667;SDS011;51077;42.716;23.344;2022-08-02T15:16:48;1.47;;;0.70;;
64667;SDS011;51077;42.716;23.344;2022-08-02T15:19:14;1.50;;;0.60;;
64667;SDS011;51077;42.716;23.344;2022-08-02T15:21:39;1.37;;;0.60;;
64667;SDS011;51077;42.716;23.344;2022-08-02T15:24:04;1.30;;;0.60;;
64667;SDS011;51077;42.716;23.344;2022-08-02T15:26:30;2.07;;;0.93;;
64667;SDS011;51077;42.716;23.344;2022-08-02T15:28:55;2.10;;;0.97;;
64667;SDS011;51077;42.716;23.344;2022-08-02T15:31:21;1.43;;;0.60;;